馬祖南竿航空站 - ATIS

METAR RCFG 181100Z 01012KT 350V050 9999 FEW015 BKN025 BKN045 10/06 Q1023 NOSIG RMK 04013KT/R21 MAX WND 16KT/R03 01011G21KT/NJL A3022(A)=

站台狀態:Online
最後更新:2020-01-18 19:45:03